, TX

(GMT )
Ingleside

Weather History for KTFP - January, 2013

Change the Weather History Date:

Tuesday, January 15, 2013

  Actual Average Record
Temperature  
Mean Temperature 44 °F -  
Max Temperature 47 °F - - ()
Min Temperature 42 °F - - ()
Degree Days  
Heating Degree Days 20    
Moisture  
Dew Point 42 °F    
Average Humidity 91    
Maximum Humidity 96    
Minimum Humidity 82    
Precipitation  
Precipitation 0.00 in - - ()
Sea Level Pressure  
Sea Level Pressure 30.10 in    
Wind  
Wind Speed 12 mph (North)    
Max Wind Speed 18 mph    
Max Gust Speed 26 mph    
Visibility 7 miles    
Events Rain    
Averages and records for this station are not official NWS values.
T = Trace of Precipitation, MM = Missing Value Source: NWS Daily Summary

Daily Weather History Graph

Daily Weather History Graph

Search for Another Location

Airport or City:

Trip Planner

Search our weather history database for the weather conditions in past years. The results will help you decide how hot, cold, wet, or windy it might be!

Date:

Astronomy

Jan. 15, 2013 Rise Set
Actual Time 7:21 AM CST 5:55 PM CST
Civil Twilight 6:55 AM CST 6:21 PM CST
Nautical Twilight 6:27 AM CST 6:49 PM CST
Astronomical Twilight 5:58 AM CST 7:18 PM CST
Moon 9:53 AM CST (1/15) 10:17 PM CST (1/15)
Length of Visible Light 11h 25m
Length of Day
10h 34m
Waxing Crescent, 19% of the Moon is Illuminated
Jan 15
Waxing Crescent
Jan 18
First Quarter
Jan 26
Full
Feb 3
Last Quarter
Feb 10
New

Hourly Weather History & Observations

Time (CST) Temp. Windchill Dew Point Humidity Pressure Visibility Wind Dir Wind Speed Gust Speed Precip Events Conditions
12:15 AM 47.3 °F - 45.0 °F 92% 30.06 in 7.0 mi NNE 6.9 mph - N/A   Overcast
12:35 AM 47.3 °F - 45.0 °F 92% 30.06 in 7.0 mi NNE 8.1 mph - N/A   Overcast
12:55 AM 47.3 °F - 45.1 °F 92% 30.06 in 10.0 mi NNE 8.1 mph - N/A   Overcast
1:15 AM 47.3 °F - 45.3 °F 93% 30.06 in 7.0 mi North 9.2 mph - N/A   Overcast
1:35 AM 47.3 °F - 45.5 °F 93% 30.05 in 5.0 mi North 6.9 mph - N/A   Overcast
1:55 AM 47.1 °F - 45.5 °F 94% 30.05 in 4.0 mi North 9.2 mph - N/A   Overcast
2:15 AM 46.6 °F - 45.1 °F 95% 30.05 in 2.5 mi NNW 9.2 mph - N/A   Drizzle
2:35 AM 46.4 °F 41.9 °F 45.0 °F 95% 30.06 in 2.5 mi NNW 9.2 mph - N/A   Drizzle
2:55 AM 46.4 °F 41.1 °F 44.8 °F 94% 30.05 in 2.5 mi North 11.5 mph - N/A   Drizzle
3:15 AM 46.2 °F 41.2 °F 44.8 °F 95% 30.06 in 2.5 mi NNW 10.4 mph - N/A   Light Drizzle
3:35 AM 46.2 °F 40.5 °F 44.8 °F 95% 30.06 in 3.0 mi North 12.7 mph - N/A   Drizzle
3:55 AM 45.9 °F 40.4 °F 44.6 °F 95% 30.05 in 3.0 mi North 11.5 mph - N/A   Light Drizzle
4:15 AM 45.9 °F 40.4 °F 44.6 °F 95% 30.06 in 3.0 mi North 11.5 mph 18.4 mph N/A Rain Rain
4:55 AM 45.7 °F 39.1 °F 44.6 °F 96% 30.05 in 4.0 mi North 15.0 mph 18.4 mph N/A   Light Drizzle
5:15 AM 45.7 °F 39.8 °F 44.6 °F 96% 30.05 in 4.0 mi North 12.7 mph - N/A   Light Drizzle
5:35 AM 45.5 °F 38.6 °F 44.2 °F 95% 30.05 in 4.0 mi North 16.1 mph - N/A   Drizzle
5:55 AM 45.5 °F 38.9 °F 44.2 °F 95% 30.05 in 5.0 mi North 15.0 mph 19.6 mph N/A Rain Light Rain
6:15 AM 45.7 °F 39.5 °F 44.6 °F 96% 30.05 in 5.0 mi North 13.8 mph - N/A   Light Drizzle
6:35 AM 45.9 °F 39.7 °F 44.6 °F 95% 30.06 in 5.0 mi North 13.8 mph 18.4 mph N/A   Light Drizzle
6:55 AM 45.9 °F 39.4 °F 44.6 °F 95% 30.07 in 5.0 mi North 15.0 mph 19.6 mph N/A   Light Drizzle
7:15 AM 45.1 °F 38.8 °F 43.7 °F 95% 30.08 in 4.0 mi North 13.8 mph 18.4 mph N/A   Light Drizzle
7:35 AM 45.0 °F 39.3 °F 43.7 °F 95% 30.09 in 4.0 mi North 11.5 mph - N/A   Light Drizzle
7:55 AM 45.1 °F 38.8 °F 43.9 °F 95% 30.10 in 4.0 mi North 13.8 mph 18.4 mph N/A   Overcast
8:15 AM 45.0 °F 37.9 °F 43.7 °F 95% 30.09 in 4.0 mi North 16.1 mph - N/A   Overcast
8:35 AM 45.1 °F 39.1 °F 43.9 °F 95% 30.09 in 5.0 mi NNE 12.7 mph - N/A   Overcast
8:55 AM 45.1 °F 38.8 °F 43.7 °F 95% 30.10 in 10.0 mi NNE 13.8 mph 18.4 mph N/A   Overcast
9:15 AM 45.3 °F 39.3 °F 43.7 °F 94% 30.08 in 10.0 mi NNE 12.7 mph - N/A   Overcast
9:35 AM 45.5 °F 39.2 °F 43.5 °F 93% 30.10 in 10.0 mi North 13.8 mph 21.9 mph N/A   Overcast
9:55 AM 45.5 °F 38.9 °F 43.5 °F 93% 30.11 in 10.0 mi North 15.0 mph - N/A   Overcast
10:15 AM 45.3 °F 39.0 °F 43.2 °F 92% 30.12 in 4.0 mi North 13.8 mph - N/A   Overcast
10:35 AM 45.0 °F 38.9 °F 43.2 °F 93% 30.11 in 3.0 mi North 12.7 mph - N/A   Light Drizzle
10:55 AM 44.4 °F 37.9 °F 43.0 °F 95% 30.11 in 7.0 mi North 13.8 mph 19.6 mph N/A   Overcast
11:15 AM 44.6 °F 38.1 °F 43.0 °F 94% 30.10 in 5.0 mi North 13.8 mph - N/A   Overcast
11:35 AM 44.6 °F 38.8 °F 43.0 °F 94% 30.10 in 5.0 mi North 11.5 mph - N/A   Overcast
11:55 AM 44.8 °F 38.3 °F 43.2 °F 94% 30.09 in 7.0 mi North 13.8 mph - N/A   Overcast
12:15 PM 44.8 °F 39.0 °F 43.2 °F 94% 30.09 in 5.0 mi North 11.5 mph - N/A   Overcast
12:35 PM 44.6 °F 38.4 °F 43.0 °F 94% 30.08 in 5.0 mi NNW 12.7 mph - N/A   Overcast
12:55 PM 44.4 °F 37.5 °F 42.8 °F 94% 30.05 in 4.0 mi North 15.0 mph - N/A   Overcast
1:15 PM 44.4 °F 37.9 °F 42.8 °F 94% 30.07 in 7.0 mi North 13.8 mph 18.4 mph N/A   Overcast
1:35 PM 44.2 °F 38.4 °F 42.4 °F 93% 30.06 in 10.0 mi North 11.5 mph - N/A   Overcast
1:55 PM 44.2 °F 37.6 °F 42.3 °F 93% 30.07 in 7.0 mi NNW 13.8 mph 19.6 mph N/A   Overcast
2:55 PM - - - N/A% 30.07 in 7.0 mi NNW 12.7 mph - N/A   Unknown
3:15 PM 43.2 °F 35.6 °F 41.2 °F 93% 30.07 in 10.0 mi North 16.1 mph - N/A   Overcast
3:35 PM 43.0 °F 35.4 °F 41.2 °F 93% 30.08 in 10.0 mi NNW 16.1 mph - N/A   Overcast
3:55 PM 43.2 °F 35.0 °F 41.0 °F 92% 30.08 in 10.0 mi NNW 18.4 mph 21.9 mph N/A   Overcast
4:15 PM 43.0 °F 36.0 °F 40.3 °F 90% 30.09 in 10.0 mi North 13.8 mph - N/A   Overcast
4:35 PM 43.0 °F 36.4 °F 40.1 °F 90% 30.10 in 10.0 mi North 12.7 mph 18.4 mph N/A   Overcast
4:55 PM 43.2 °F 36.6 °F 40.1 °F 89% 30.11 in 10.0 mi NNW 12.7 mph 18.4 mph N/A   Overcast
5:15 PM 43.2 °F 36.2 °F 39.7 °F 88% 30.12 in 10.0 mi NNW 13.8 mph - N/A   Overcast
5:35 PM 43.2 °F 35.3 °F 39.6 °F 87% 30.12 in 10.0 mi NNW 17.3 mph 23.0 mph N/A   Overcast
5:55 PM 43.0 °F 35.1 °F 38.8 °F 85% 30.13 in 10.0 mi North 17.3 mph - N/A   Overcast
6:15 PM 42.8 °F 35.4 °F 38.7 °F 85% 30.14 in 10.0 mi NNW 15.0 mph - N/A   Overcast
6:35 PM 42.8 °F 36.2 °F 38.5 °F 85% 30.15 in 10.0 mi North 12.7 mph - N/A   Overcast
6:55 PM 42.8 °F 35.8 °F 38.5 °F 85% 30.15 in 10.0 mi North 13.8 mph 18.4 mph N/A   Overcast
7:15 PM 42.8 °F 36.6 °F 38.5 °F 85% 30.14 in 10.0 mi North 11.5 mph - N/A   Overcast
7:35 PM 42.8 °F 36.6 °F 38.3 °F 84% 30.15 in 10.0 mi North 11.5 mph - N/A   Overcast
7:55 PM 42.8 °F 36.6 °F 38.3 °F 84% 30.16 in 10.0 mi North 11.5 mph - N/A   Overcast
8:15 PM 42.6 °F 34.9 °F 38.1 °F 84% 30.16 in 10.0 mi North 16.1 mph 19.6 mph N/A   Overcast
8:35 PM 42.4 °F 35.3 °F 37.8 °F 83% 30.17 in 10.0 mi North 13.8 mph 19.6 mph N/A   Overcast
8:55 PM 42.4 °F 35.0 °F 37.6 °F 83% 30.18 in 10.0 mi North 15.0 mph 19.6 mph N/A   Overcast
9:15 PM 42.4 °F 35.3 °F 37.6 °F 83% 30.18 in 10.0 mi North 13.8 mph 21.9 mph N/A   Overcast
9:35 PM 42.4 °F 35.0 °F 37.6 °F 83% 30.18 in 10.0 mi North 15.0 mph 23.0 mph N/A   Overcast
9:55 PM 42.6 °F 35.2 °F 37.9 °F 83% 30.18 in 10.0 mi North 15.0 mph 19.6 mph N/A   Overcast
10:15 PM 42.8 °F 34.5 °F 37.8 °F 82% 30.19 in 10.0 mi North 18.4 mph 23.0 mph N/A   Overcast
10:35 PM 42.8 °F 34.5 °F 37.8 °F 82% 30.20 in 10.0 mi North 18.4 mph 25.3 mph N/A   Overcast
10:55 PM 42.8 °F 34.8 °F 37.6 °F 82% 30.20 in 10.0 mi North 17.3 mph 26.5 mph N/A   Overcast
11:15 PM 42.8 °F 36.2 °F 37.8 °F 82% 30.20 in 10.0 mi North 12.7 mph - N/A   Overcast
11:35 PM 42.8 °F 36.6 °F 38.1 °F 84% 30.22 in 10.0 mi NNW 11.5 mph 17.3 mph N/A   Overcast